Flight Track Log - Related Links

Times and Time Zones

All times are in EDT time to prevent confusion due to time zone crossing. See the GLA50E flight status page for this flight to view local times or setup timezone preferences in your user account.


Time Position Orientation Groundspeed Altitude Reporting Facility
EDT Latitude Longitude Course Direction KTS MPH feet Rate Location/Type
Sun 09:19:04 PM 39.8833 -104.4833 75° East 208 239 9,000  Level Denver TRACON
Sun 09:20:04 PM 39.8667 -104.4000 105° East 251 289 9,100 900 Climbing Denver TRACON
Sun 09:21:04 PM 39.8833 -104.3167 75° East 223 257 10,800 1,000 Climbing Denver TRACON
Sun 09:22:04 PM 39.9167 -104.2333 62° Northeast 250 288 11,100 684 Climbing Denver TRACON
Sun 09:22:58 PM 39.9333 -104.1667 72° East 250 288 12,100 1,286 Climbing Denver TRACON
Sun 09:23:00 PM 39.9230 -104.1680 69° East  Level FlightAware Approximate
Sun 09:23:14 PM 39.9319 -104.1453 95° East 240 276 12,600  Level Denver Center
Sun 09:24:00 PM 39.9454 -104.0763 75° East  Level FlightAware Approximate
Sun 09:24:16 PM 39.9539 -104.0556 72° East 243 280 13,100  Level Denver Center
Sun 09:25:18 PM 39.9772 -103.9650 71° East 259 298 14,300 927 Climbing Denver Center
Sun 09:26:19 PM 40.0019 -103.8789 69° East 242 278 15,000 878 Climbing Denver Center
Sun 09:27:21 PM 40.0242 -103.7853 73° East 269 310 16,100 1,306 Climbing Denver Center
Sun 09:28:23 PM 40.0411 -103.7033 75° East 225 259 17,700 1,161 Climbing Denver Center
Sun 09:29:25 PM 40.0603 -103.6172 74° East 245 282 18,500 927 Climbing Denver Center
Sun 09:30:26 PM 40.0822 -103.5303 72° East 249 287 19,600 927 Climbing Denver Center
Sun 09:31:28 PM 40.0950 -103.4550 77° East 251 289 20,400 629 Climbing Denver Center
Sun 09:32:30 PM 40.1158 -103.3475 76° East 261 300 20,900 290 Climbing Denver Center
Sun 09:33:32 PM 40.1361 -103.2508 75° East 274 315 21,000 49 Climbing Denver Center
Sun 09:34:33 PM 40.1617 -103.1344 74° East 282 325 21,000  Level Denver Center
Sun 09:35:35 PM 40.1781 -103.0297 78° East 292 336 21,000 823 Level Denver Center
Sun 09:36:37 PM 40.1958 -102.9322 77° East 274 315 22,700 919 Climbing Denver Center
Sun 09:37:39 PM 40.2081 -102.8353 81° East 271 312 22,900 176 Climbing Denver Center
Sun 09:38:53 PM 40.2281 -102.7308 76° East 293 337 23,100 88 Climbing Denver Center
Sun 09:39:55 PM 40.2494 -102.5975 78° East 310 357 23,100 -44 Level Denver Center
Sun 09:41:08 PM 40.2675 -102.4744 79° East 308 354 23,000 -44 Descending Denver Center
Sun 09:42:11 PM 40.2853 -102.3536 79° East 304 350 23,000  Level Denver Center
Sun 09:43:12 PM 40.3033 -102.2339 79° East 302 348 23,000  Level Denver Center
Sun 09:44:14 PM 40.3164 -102.1306 81° East 303 349 23,000  Level Denver Center
Sun 09:45:16 PM 40.3342 -102.0106 79° East 302 348 23,000  Level Denver Center
Sun 09:46:17 PM 40.3417 -101.9231 84° East 304 350 23,000 48 Level Denver Center
Sun 09:47:20 PM 40.3561 -101.7822 82° East 306 352 23,100 -48 Climbing Denver Center
Sun 09:48:21 PM 40.3672 -101.6764 82° East 307 353 22,900 -49 Descending Denver Center
Sun 09:49:23 PM 40.3750 -101.5861 84° East 312 359 23,000 97 Climbing Denver Center
Sun 09:50:25 PM 40.3911 -101.4442 81° East 309 356 23,100  Climbing Denver Center
Sun 09:51:27 PM 40.4003 -101.3347 84° East 315 362 23,000 -48 Descending Denver Center
Sun 09:52:29 PM 40.4169 -101.2086 80° East 315 362 23,000  Level Denver Center
Sun 09:53:30 PM 40.4300 -101.1008 81° East 314 361 23,000 49 Level Denver Center
Sun 09:54:32 PM 40.4503 -100.9742 78° East 317 365 23,100  Climbing Denver Center
Sun 09:55:34 PM 40.4678 -100.8653 78° East 319 367 23,000  Descending Denver Center
Sun 09:56:36 PM 40.4831 -100.7342 81° East 327 376 23,100 -48 Climbing Denver Center
Sun 09:57:38 PM 40.4956 -100.6250 81° East 321 369 22,900 -98 Descending Denver Center
Sun 09:58:39 PM 40.5183 -100.5039 76° East 310 357 22,900  Level Denver Center
Sun 09:59:41 PM 40.5347 -100.4006 78° East 304 350 22,900  Level Denver Center
Sun 10:00:43 PM 40.5506 -100.2800 80° East 302 348 22,900 -339 Level Denver Center
Sun 10:01:45 PM 40.5489 -100.1744 91° East 303 349 22,200 -1,597 Descending Denver Center
Sun 10:02:47 PM 40.5408 -100.0517 95° East 303 349 19,600 -2,371 Descending Denver Center
Sun 10:03:49 PM 40.5361 -99.9472 93° East 300 345 17,300 -2,371 Descending Denver Center
Sun 10:04:51 PM 40.5228 -99.8447 100° East 291 335 14,700 -2,488 Descending Denver Center
Sun 10:05:52 PM 40.5039 -99.7428 104° East 287 330 12,200 -2,390 Descending Denver Center
Sun 10:06:54 PM 40.4847 -99.6447 104° East 281 323 9,800 -1,887 Descending Denver Center
Sun 10:07:56 PM 40.4806 -99.5314 93° East 263 303 8,300 -1,113 Descending Denver Center
Sun 10:08:58 PM 40.4931 -99.4417 80° East 261 300 7,500 -629 Descending Denver Center
Sun 10:10:00 PM 40.5239 -99.3569 64° Northeast 258 297 7,000 -484 Descending Denver Center
Sun 10:11:02 PM 40.5561 -99.2717 64° Northeast 260 299 6,500 -629 Descending Denver Center
Sun 10:12:04 PM 40.5861 -99.1853 65° Northeast 261 300 5,700 -1,024 Descending Denver Center
Sun 10:13:05 PM 40.6158 -99.0994 65° Northeast 260 299 4,400 -1,367 Descending Denver Center
Sun 10:13:23 PM 40.6269 -99.0667 66° East 259 298 3,900 -825 Descending Minneapolis Center
Sun 10:14:25 PM 40.6619 -99.0208 45° Northeast 215 247 3,300 -683 Descending Minneapolis Center
Sun 10:15:26 PM 40.7050 -99.0125 North 178 205 2,500 -787 Descending Minneapolis Center

Login

Don't have an account? Register now (free) for customized features, flight alerts, and more!